sensor_id;sensor_type;location;lat;lon;timestamp;temperature;humidity
10089;DHT22;51898;49.864;8.550;2022-09-17T00:01:36;8.80;99.90
10089;DHT22;51898;49.864;8.550;2022-09-17T00:04:39;8.80;99.90
10089;DHT22;51898;49.864;8.550;2022-09-17T00:07:40;8.70;99.90
10089;DHT22;51898;49.864;8.550;2022-09-17T00:10:43;8.70;99.90
10089;DHT22;51898;49.864;8.550;2022-09-17T00:13:45;8.60;99.90
10089;DHT22;51898;49.864;8.550;2022-09-17T00:16:47;8.60;99.90
10089;DHT22;51898;49.864;8.550;2022-09-17T00:19:49;8.50;99.90
10089;DHT22;51898;49.864;8.550;2022-09-17T00:22:52;8.50;99.90
10089;DHT22;51898;49.864;8.550;2022-09-17T00:25:54;8.50;99.90
10089;DHT22;51898;49.864;8.550;2022-09-17T00:28:56;8.40;99.90
10089;DHT22;51898;49.864;8.550;2022-09-17T00:31:59;8.40;99.90
10089;DHT22;51898;49.864;8.550;2022-09-17T00:35:00;8.40;99.90
10089;DHT22;51898;49.864;8.550;2022-09-17T00:38:02;8.40;99.90
10089;DHT22;51898;49.864;8.550;2022-09-17T00:41:05;8.40;99.90
10089;DHT22;51898;49.864;8.550;2022-09-17T00:47:42;8.50;99.90
10089;DHT22;51898;49.864;8.550;2022-09-17T00:50:47;8.50;99.90
10089;DHT22;51898;49.864;8.550;2022-09-17T00:53:48;8.50;99.90
10089;DHT22;51898;49.864;8.550;2022-09-17T00:56:50;8.50;99.90
10089;DHT22;51898;49.864;8.550;2022-09-17T00:59:52;8.50;99.90
10089;DHT22;51898;49.864;8.550;2022-09-17T01:02:54;8.50;99.90
10089;DHT22;51898;49.864;8.550;2022-09-17T01:15:48;8.40;99.90
10089;DHT22;51898;49.864;8.550;2022-09-17T01:19:26;8.40;99.90
10089;DHT22;51898;49.864;8.550;2022-09-17T01:26:42;8.40;99.90
10089;DHT22;51898;49.864;8.550;2022-09-17T01:30:12;8.40;99.90
10089;DHT22;51898;49.864;8.550;2022-09-17T01:40:07;8.40;99.90
10089;DHT22;51898;49.864;8.550;2022-09-17T01:43:21;8.40;99.90
10089;DHT22;51898;49.864;8.550;2022-09-17T01:46:38;8.40;99.90
10089;DHT22;51898;49.864;8.550;2022-09-17T01:49:41;8.30;99.90
10089;DHT22;51898;49.864;8.550;2022-09-17T01:52:45;8.40;99.90
10089;DHT22;51898;49.864;8.550;2022-09-17T01:55:50;8.40;99.90
10089;DHT22;51898;49.864;8.550;2022-09-17T01:59:06;8.50;99.90
10089;DHT22;51898;49.864;8.550;2022-09-17T02:02:26;8.60;99.90
10089;DHT22;51898;49.864;8.550;2022-09-17T02:05:35;8.70;99.90
10089;DHT22;51898;49.864;8.550;2022-09-17T02:09:03;8.70;99.90
10089;DHT22;51898;49.864;8.550;2022-09-17T02:12:09;8.80;99.90
10089;DHT22;51898;49.864;8.550;2022-09-17T02:15:28;8.80;99.90
10089;DHT22;51898;49.864;8.550;2022-09-17T02:18:45;8.90;99.90
10089;DHT22;51898;49.864;8.550;2022-09-17T02:25:20;8.90;99.90
10089;DHT22;51898;49.864;8.550;2022-09-17T02:28:36;8.90;99.90
10089;DHT22;51898;49.864;8.550;2022-09-17T02:31:40;8.90;99.90
10089;DHT22;51898;49.864;8.550;2022-09-17T02:34:42;9.00;99.90
10089;DHT22;51898;49.864;8.550;2022-09-17T02:37:44;9.00;99.90
10089;DHT22;51898;49.864;8.550;2022-09-17T02:40:53;9.00;99.90
10089;DHT22;51898;49.864;8.550;2022-09-17T02:44:12;9.00;99.90
10089;DHT22;51898;49.864;8.550;2022-09-17T02:47:44;9.10;99.90
10089;DHT22;51898;49.864;8.550;2022-09-17T02:51:02;9.10;99.90
10089;DHT22;51898;49.864;8.550;2022-09-17T02:54:23;9.10;99.90
10089;DHT22;51898;49.864;8.550;2022-09-17T02:57:33;9.10;99.90
10089;DHT22;51898;49.864;8.550;2022-09-17T03:00:39;9.20;99.90
10089;DHT22;51898;49.864;8.550;2022-09-17T03:03:43;9.20;99.90
10089;DHT22;51898;49.864;8.550;2022-09-17T03:06:46;9.20;99.90
10089;DHT22;51898;49.864;8.550;2022-09-17T03:09:48;9.20;99.90
10089;DHT22;51898;49.864;8.550;2022-09-17T03:12:54;9.30;99.90
10089;DHT22;51898;49.864;8.550;2022-09-17T03:15:56;9.30;99.90
10089;DHT22;51898;49.864;8.550;2022-09-17T03:18:57;9.30;99.90
10089;DHT22;51898;49.864;8.550;2022-09-17T03:21:59;9.40;99.90
10089;DHT22;51898;49.864;8.550;2022-09-17T03:25:01;9.40;99.90
10089;DHT22;51898;49.864;8.550;2022-09-17T03:28:02;9.40;99.90
10089;DHT22;51898;49.864;8.550;2022-09-17T03:31:04;9.40;99.90
10089;DHT22;51898;49.864;8.550;2022-09-17T03:34:06;9.50;99.90
10089;DHT22;51898;49.864;8.550;2022-09-17T03:37:08;9.50;99.90
10089;DHT22;51898;49.864;8.550;2022-09-17T03:40:09;9.50;99.90
10089;DHT22;51898;49.864;8.550;2022-09-17T03:43:11;9.50;99.90
10089;DHT22;51898;49.864;8.550;2022-09-17T03:46:13;9.50;99.90
10089;DHT22;51898;49.864;8.550;2022-09-17T03:49:14;9.50;99.90
10089;DHT22;51898;49.864;8.550;2022-09-17T03:52:16;9.50;99.90
10089;DHT22;51898;49.864;8.550;2022-09-17T03:55:18;9.50;99.90
10089;DHT22;51898;49.864;8.550;2022-09-17T03:58:20;9.60;99.90
10089;DHT22;51898;49.864;8.550;2022-09-17T04:01:21;9.60;99.90
10089;DHT22;51898;49.864;8.550;2022-09-17T04:04:23;9.60;99.90
10089;DHT22;51898;49.864;8.550;2022-09-17T04:07:24;9.60;99.90
10089;DHT22;51898;49.864;8.550;2022-09-17T04:10:26;9.70;99.90
10089;DHT22;51898;49.864;8.550;2022-09-17T04:13:27;9.70;99.90
10089;DHT22;51898;49.864;8.550;2022-09-17T04:16:29;9.70;99.90
10089;DHT22;51898;49.864;8.550;2022-09-17T04:19:31;9.70;99.90
10089;DHT22;51898;49.864;8.550;2022-09-17T04:22:33;9.80;99.90
10089;DHT22;51898;49.864;8.550;2022-09-17T04:25:34;9.80;99.90
10089;DHT22;51898;49.864;8.550;2022-09-17T04:28:36;9.90;99.90
10089;DHT22;51898;49.864;8.550;2022-09-17T04:31:38;9.90;99.90
10089;DHT22;51898;49.864;8.550;2022-09-17T04:34:39;9.90;99.90
10089;DHT22;51898;49.864;8.550;2022-09-17T04:37:41;9.90;99.90
10089;DHT22;51898;49.864;8.550;2022-09-17T04:40:43;9.90;99.90
10089;DHT22;51898;49.864;8.550;2022-09-17T04:43:46;9.90;99.90
10089;DHT22;51898;49.864;8.550;2022-09-17T04:46:48;9.90;99.90
10089;DHT22;51898;49.864;8.550;2022-09-17T04:49:50;9.80;99.90
10089;DHT22;51898;49.864;8.550;2022-09-17T04:52:51;9.80;99.90
10089;DHT22;51898;49.864;8.550;2022-09-17T04:55:53;9.80;99.90
10089;DHT22;51898;49.864;8.550;2022-09-17T04:58:55;9.80;99.90
10089;DHT22;51898;49.864;8.550;2022-09-17T05:01:56;9.80;99.90
10089;DHT22;51898;49.864;8.550;2022-09-17T05:04:58;9.70;99.90
10089;DHT22;51898;49.864;8.550;2022-09-17T05:08:00;9.70;99.90
10089;DHT22;51898;49.864;8.550;2022-09-17T05:11:02;9.60;99.90
10089;DHT22;51898;49.864;8.550;2022-09-17T05:14:04;9.60;99.90
10089;DHT22;51898;49.864;8.550;2022-09-17T05:17:05;9.70;99.90
10089;DHT22;51898;49.864;8.550;2022-09-17T05:20:07;9.70;99.90
10089;DHT22;51898;49.864;8.550;2022-09-17T05:23:10;9.70;99.90
10089;DHT22;51898;49.864;8.550;2022-09-17T05:26:11;9.70;99.90
10089;DHT22;51898;49.864;8.550;2022-09-17T05:29:13;9.70;99.90
10089;DHT22;51898;49.864;8.550;2022-09-17T05:32:14;9.70;99.90
10089;DHT22;51898;49.864;8.550;2022-09-17T05:35:16;9.70;99.90
10089;DHT22;51898;49.864;8.550;2022-09-17T05:38:18;9.80;99.90
10089;DHT22;51898;49.864;8.550;2022-09-17T05:41:19;9.80;99.90
10089;DHT22;51898;49.864;8.550;2022-09-17T05:44:21;9.80;99.90
10089;DHT22;51898;49.864;8.550;2022-09-17T05:47:24;9.90;99.90
10089;DHT22;51898;49.864;8.550;2022-09-17T05:50:26;9.90;99.90
10089;DHT22;51898;49.864;8.550;2022-09-17T05:53:28;10.00;99.90
10089;DHT22;51898;49.864;8.550;2022-09-17T05:56:29;10.10;99.90
10089;DHT22;51898;49.864;8.550;2022-09-17T05:59:31;10.10;99.90
10089;DHT22;51898;49.864;8.550;2022-09-17T06:02:33;10.10;99.90
10089;DHT22;51898;49.864;8.550;2022-09-17T06:05:34;10.20;99.90
10089;DHT22;51898;49.864;8.550;2022-09-17T06:08:36;10.20;99.90
10089;DHT22;51898;49.864;8.550;2022-09-17T06:11:38;10.20;99.90
10089;DHT22;51898;49.864;8.550;2022-09-17T06:14:39;10.30;99.90
10089;DHT22;51898;49.864;8.550;2022-09-17T06:17:41;10.30;99.90
10089;DHT22;51898;49.864;8.550;2022-09-17T06:20:54;10.30;99.90
10089;DHT22;51898;49.864;8.550;2022-09-17T06:23:56;10.40;99.90
10089;DHT22;51898;49.864;8.550;2022-09-17T06:26:58;10.40;99.90
10089;DHT22;51898;49.864;8.550;2022-09-17T06:30:00;10.40;99.90
10089;DHT22;51898;49.864;8.550;2022-09-17T06:33:02;10.50;99.90
10089;DHT22;51898;49.864;8.550;2022-09-17T06:36:08;10.40;99.90
10089;DHT22;51898;49.864;8.550;2022-09-17T08:15:01;13.20;99.90
10089;DHT22;51898;49.864;8.550;2022-09-17T08:18:03;13.50;99.90
10089;DHT22;51898;49.864;8.550;2022-09-17T08:21:06;13.60;99.90
10089;DHT22;51898;49.864;8.550;2022-09-17T08:24:08;13.40;99.90
10089;DHT22;51898;49.864;8.550;2022-09-17T08:27:10;13.40;99.90
10089;DHT22;51898;49.864;8.550;2022-09-17T08:30:11;13.30;99.90
10089;DHT22;51898;49.864;8.550;2022-09-17T08:33:13;13.40;99.90
10089;DHT22;51898;49.864;8.550;2022-09-17T08:36:16;13.70;99.90
10089;DHT22;51898;49.864;8.550;2022-09-17T08:39:19;13.80;99.90
10089;DHT22;51898;49.864;8.550;2022-09-17T08:42:51;13.70;99.90
10089;DHT22;51898;49.864;8.550;2022-09-17T08:45:56;13.80;99.90
10089;DHT22;51898;49.864;8.550;2022-09-17T08:49:11;13.80;99.90
10089;DHT22;51898;49.864;8.550;2022-09-17T08:56:08;13.90;99.90
10089;DHT22;51898;49.864;8.550;2022-09-17T08:59:25;14.00;99.90
10089;DHT22;51898;49.864;8.550;2022-09-17T09:05:53;14.50;99.90
10089;DHT22;51898;49.864;8.550;2022-09-17T09:09:00;14.40;99.90
10089;DHT22;51898;49.864;8.550;2022-09-17T09:12:17;14.40;99.90
10089;DHT22;51898;49.864;8.550;2022-09-17T09:15:39;14.60;99.90
10089;DHT22;51898;49.864;8.550;2022-09-17T09:18:43;14.70;99.90
10089;DHT22;51898;49.864;8.550;2022-09-17T09:29:30;15.10;99.90
10089;DHT22;51898;49.864;8.550;2022-09-17T09:35:39;15.20;99.90
10089;DHT22;51898;49.864;8.550;2022-09-17T09:38:54;15.40;99.90
10089;DHT22;51898;49.864;8.550;2022-09-17T09:42:10;15.70;99.90
10089;DHT22;51898;49.864;8.550;2022-09-17T09:45:19;15.90;99.90
10089;DHT22;51898;49.864;8.550;2022-09-17T09:51:49;15.90;99.90
10089;DHT22;51898;49.864;8.550;2022-09-17T09:58:37;15.90;99.90
10089;DHT22;51898;49.864;8.550;2022-09-17T10:01:41;15.80;99.90
10089;DHT22;51898;49.864;8.550;2022-09-17T10:04:44;15.60;99.90
10089;DHT22;51898;49.864;8.550;2022-09-17T10:07:52;15.20;99.90
10089;DHT22;51898;49.864;8.550;2022-09-17T10:10:59;14.40;99.90
10089;DHT22;51898;49.864;8.550;2022-09-17T10:14:21;13.00;99.90
10089;DHT22;51898;49.864;8.550;2022-09-17T10:17:25;12.20;99.90
10089;DHT22;51898;49.864;8.550;2022-09-17T10:20:27;11.80;99.90
10089;DHT22;51898;49.864;8.550;2022-09-17T10:23:30;11.40;99.90
10089;DHT22;51898;49.864;8.550;2022-09-17T10:26:35;11.50;99.90
10089;DHT22;51898;49.864;8.550;2022-09-17T10:29:45;11.60;99.90
10089;DHT22;51898;49.864;8.550;2022-09-17T10:36:39;12.10;99.90
10089;DHT22;51898;49.864;8.550;2022-09-17T10:39:41;12.50;99.90
10089;DHT22;51898;49.864;8.550;2022-09-17T10:43:13;12.70;99.90
10089;DHT22;51898;49.864;8.550;2022-09-17T10:46:18;13.00;99.90
10089;DHT22;51898;49.864;8.550;2022-09-17T10:49:35;13.10;99.90
10089;DHT22;51898;49.864;8.550;2022-09-17T10:52:39;13.20;99.90
10089;DHT22;51898;49.864;8.550;2022-09-17T10:55:51;13.10;99.90
10089;DHT22;51898;49.864;8.550;2022-09-17T11:02:39;13.30;99.90
10089;DHT22;51898;49.864;8.550;2022-09-17T11:12:50;13.60;99.90
10089;DHT22;51898;49.864;8.550;2022-09-17T11:17:02;13.70;99.90
10089;DHT22;51898;49.864;8.550;2022-09-17T11:23:06;14.30;99.90
10089;DHT22;51898;49.864;8.550;2022-09-17T11:33:26;15.10;99.90
10089;DHT22;51898;49.864;8.550;2022-09-17T11:36:45;15.20;99.90
10089;DHT22;51898;49.864;8.550;2022-09-17T11:43:25;15.50;99.90
10089;DHT22;51898;49.864;8.550;2022-09-17T11:46:44;15.60;99.90
10089;DHT22;51898;49.864;8.550;2022-09-17T11:50:00;15.50;99.90
10089;DHT22;51898;49.864;8.550;2022-09-17T11:53:12;15.30;99.90
10089;DHT22;51898;49.864;8.550;2022-09-17T11:56:26;15.30;99.90
10089;DHT22;51898;49.864;8.550;2022-09-17T12:03:01;15.10;99.90
10089;DHT22;51898;49.864;8.550;2022-09-17T12:06:13;15.00;99.90
10089;DHT22;51898;49.864;8.550;2022-09-17T12:09:19;15.00;99.90
10089;DHT22;51898;49.864;8.550;2022-09-17T12:12:23;15.10;99.90
10089;DHT22;51898;49.864;8.550;2022-09-17T12:15:50;15.40;99.90
10089;DHT22;51898;49.864;8.550;2022-09-17T12:22:24;15.80;99.90
10089;DHT22;51898;49.864;8.550;2022-09-17T12:25:33;15.90;99.90
10089;DHT22;51898;49.864;8.550;2022-09-17T12:31:50;16.20;99.90
10089;DHT22;51898;49.864;8.550;2022-09-17T12:45:18;16.70;99.90
10089;DHT22;51898;49.864;8.550;2022-09-17T12:54:51;17.00;99.90
10089;DHT22;51898;49.864;8.550;2022-09-17T13:01:34;16.80;99.90
10089;DHT22;51898;49.864;8.550;2022-09-17T13:08:24;16.50;99.90
10089;DHT22;51898;49.864;8.550;2022-09-17T13:11:40;16.50;99.90
10089;DHT22;51898;49.864;8.550;2022-09-17T13:18:15;16.30;99.90
10089;DHT22;51898;49.864;8.550;2022-09-17T13:21:33;15.90;99.90
10089;DHT22;51898;49.864;8.550;2022-09-17T13:24:41;15.90;99.90
10089;DHT22;51898;49.864;8.550;2022-09-17T13:27:49;15.90;99.90
10089;DHT22;51898;49.864;8.550;2022-09-17T13:31:00;15.90;99.90
10089;DHT22;51898;49.864;8.550;2022-09-17T13:34:02;16.00;99.90
10089;DHT22;51898;49.864;8.550;2022-09-17T13:37:17;16.30;99.90
10089;DHT22;51898;49.864;8.550;2022-09-17T13:40:22;16.40;99.90
10089;DHT22;51898;49.864;8.550;2022-09-17T13:43:25;16.10;99.90
10089;DHT22;51898;49.864;8.550;2022-09-17T13:46:28;15.70;99.90
10089;DHT22;51898;49.864;8.550;2022-09-17T13:49:33;14.60;99.90
10089;DHT22;51898;49.864;8.550;2022-09-17T13:52:44;13.60;99.90
10089;DHT22;51898;49.864;8.550;2022-09-17T13:58:52;13.00;99.90
10089;DHT22;51898;49.864;8.550;2022-09-17T14:02:26;13.00;99.90
10089;DHT22;51898;49.864;8.550;2022-09-17T14:05:33;13.20;99.90
10089;DHT22;51898;49.864;8.550;2022-09-17T14:11:57;14.00;99.90
10089;DHT22;51898;49.864;8.550;2022-09-17T14:14:58;14.30;99.90
10089;DHT22;51898;49.864;8.550;2022-09-17T14:18:01;14.60;99.90
10089;DHT22;51898;49.864;8.550;2022-09-17T14:21:31;14.90;99.90
10089;DHT22;51898;49.864;8.550;2022-09-17T14:24:46;15.20;99.90
10089;DHT22;51898;49.864;8.550;2022-09-17T14:27:57;15.50;99.90
10089;DHT22;51898;49.864;8.550;2022-09-17T14:31:01;15.80;99.90
10089;DHT22;51898;49.864;8.550;2022-09-17T14:34:18;15.90;99.90
10089;DHT22;51898;49.864;8.550;2022-09-17T14:37:22;15.80;99.90
10089;DHT22;51898;49.864;8.550;2022-09-17T14:40:25;15.40;99.90
10089;DHT22;51898;49.864;8.550;2022-09-17T14:47:02;15.20;99.90
10089;DHT22;51898;49.864;8.550;2022-09-17T14:50:22;15.30;99.90
10089;DHT22;51898;49.864;8.550;2022-09-17T14:53:24;15.40;99.90
10089;DHT22;51898;49.864;8.550;2022-09-17T14:56:26;15.60;99.90
10089;DHT22;51898;49.864;8.550;2022-09-17T14:59:35;15.70;99.90
10089;DHT22;51898;49.864;8.550;2022-09-17T15:02:39;15.80;99.90
10089;DHT22;51898;49.864;8.550;2022-09-17T15:05:46;15.70;99.90
10089;DHT22;51898;49.864;8.550;2022-09-17T15:08:56;15.50;99.90
10089;DHT22;51898;49.864;8.550;2022-09-17T15:11:59;15.30;99.90
10089;DHT22;51898;49.864;8.550;2022-09-17T15:15:01;15.20;99.90
10089;DHT22;51898;49.864;8.550;2022-09-17T15:18:03;15.10;99.90
10089;DHT22;51898;49.864;8.550;2022-09-17T15:21:16;15.10;99.90
10089;DHT22;51898;49.864;8.550;2022-09-17T15:24:38;15.10;99.90
10089;DHT22;51898;49.864;8.550;2022-09-17T15:27:43;14.90;99.90
10089;DHT22;51898;49.864;8.550;2022-09-17T15:30:49;14.80;99.90
10089;DHT22;51898;49.864;8.550;2022-09-17T15:33:51;14.60;99.90
10089;DHT22;51898;49.864;8.550;2022-09-17T15:37:24;14.50;99.90
10089;DHT22;51898;49.864;8.550;2022-09-17T15:40:30;14.40;99.90
10089;DHT22;51898;49.864;8.550;2022-09-17T15:43:33;14.30;99.90
10089;DHT22;51898;49.864;8.550;2022-09-17T15:46:34;14.10;99.90
10089;DHT22;51898;49.864;8.550;2022-09-17T15:49:36;13.80;99.90
10089;DHT22;51898;49.864;8.550;2022-09-17T15:52:38;13.60;99.90
10089;DHT22;51898;49.864;8.550;2022-09-17T15:59:04;13.40;99.90
10089;DHT22;51898;49.864;8.550;2022-09-17T16:02:27;13.40;99.90
10089;DHT22;51898;49.864;8.550;2022-09-17T16:05:44;13.50;99.90
10089;DHT22;51898;49.864;8.550;2022-09-17T16:08:54;13.40;99.90
10089;DHT22;51898;49.864;8.550;2022-09-17T16:11:56;13.30;99.90
10089;DHT22;51898;49.864;8.550;2022-09-17T16:14:59;13.30;99.90
10089;DHT22;51898;49.864;8.550;2022-09-17T16:18:01;13.20;99.90
10089;DHT22;51898;49.864;8.550;2022-09-17T16:21:03;13.30;99.90
10089;DHT22;51898;49.864;8.550;2022-09-17T16:24:05;13.30;99.90
10089;DHT22;51898;49.864;8.550;2022-09-17T16:27:17;13.20;99.90
10089;DHT22;51898;49.864;8.550;2022-09-17T16:30:21;13.20;99.90
10089;DHT22;51898;49.864;8.550;2022-09-17T16:33:23;13.40;99.90
10089;DHT22;51898;49.864;8.550;2022-09-17T16:36:26;13.90;99.90
10089;DHT22;51898;49.864;8.550;2022-09-17T16:39:31;14.10;99.90
10089;DHT22;51898;49.864;8.550;2022-09-17T16:42:33;14.60;99.90
10089;DHT22;51898;49.864;8.550;2022-09-17T16:45:34;14.60;99.90
10089;DHT22;51898;49.864;8.550;2022-09-17T16:48:37;14.80;99.90
10089;DHT22;51898;49.864;8.550;2022-09-17T16:51:38;15.20;99.90
10089;DHT22;51898;49.864;8.550;2022-09-17T16:54:40;15.10;99.90
10089;DHT22;51898;49.864;8.550;2022-09-17T16:57:42;14.70;99.90
10089;DHT22;51898;49.864;8.550;2022-09-17T17:00:44;14.10;99.90
10089;DHT22;51898;49.864;8.550;2022-09-17T17:03:50;13.50;99.90
10089;DHT22;51898;49.864;8.550;2022-09-17T17:06:51;13.20;99.90
10089;DHT22;51898;49.864;8.550;2022-09-17T17:09:53;13.10;99.90
10089;DHT22;51898;49.864;8.550;2022-09-17T17:12:55;13.10;99.90
10089;DHT22;51898;49.864;8.550;2022-09-17T17:15:57;12.90;99.90
10089;DHT22;51898;49.864;8.550;2022-09-17T17:18:59;12.80;99.90
10089;DHT22;51898;49.864;8.550;2022-09-17T17:22:01;12.70;99.90
10089;DHT22;51898;49.864;8.550;2022-09-17T17:25:04;12.60;99.90
10089;DHT22;51898;49.864;8.550;2022-09-17T17:28:06;12.50;99.90
10089;DHT22;51898;49.864;8.550;2022-09-17T17:31:08;12.40;99.90
10089;DHT22;51898;49.864;8.550;2022-09-17T17:34:10;12.40;99.90
10089;DHT22;51898;49.864;8.550;2022-09-17T17:37:12;12.20;99.90
10089;DHT22;51898;49.864;8.550;2022-09-17T17:40:14;12.20;99.90
10089;DHT22;51898;49.864;8.550;2022-09-17T17:43:16;12.10;99.90
10089;DHT22;51898;49.864;8.550;2022-09-17T17:46:18;12.00;99.90
10089;DHT22;51898;49.864;8.550;2022-09-17T17:49:20;12.00;99.90
10089;DHT22;51898;49.864;8.550;2022-09-17T17:52:21;12.00;99.90
10089;DHT22;51898;49.864;8.550;2022-09-17T17:55:23;12.00;99.90
10089;DHT22;51898;49.864;8.550;2022-09-17T17:58:27;11.90;99.90
10089;DHT22;51898;49.864;8.550;2022-09-17T18:01:30;11.90;99.90
10089;DHT22;51898;49.864;8.550;2022-09-17T18:04:32;11.70;99.90
10089;DHT22;51898;49.864;8.550;2022-09-17T18:07:33;11.60;99.90
10089;DHT22;51898;49.864;8.550;2022-09-17T18:10:35;11.40;99.90
10089;DHT22;51898;49.864;8.550;2022-09-17T18:13:38;11.30;99.90
10089;DHT22;51898;49.864;8.550;2022-09-17T18:16:39;11.10;99.90
10089;DHT22;51898;49.864;8.550;2022-09-17T18:19:41;11.10;99.90
10089;DHT22;51898;49.864;8.550;2022-09-17T18:22:43;11.00;99.90
10089;DHT22;51898;49.864;8.550;2022-09-17T18:26:05;11.00;99.90
10089;DHT22;51898;49.864;8.550;2022-09-17T18:29:07;11.00;99.90
10089;DHT22;51898;49.864;8.550;2022-09-17T18:32:09;11.00;99.90
10089;DHT22;51898;49.864;8.550;2022-09-17T18:35:11;11.00;99.90
10089;DHT22;51898;49.864;8.550;2022-09-17T18:38:14;10.90;99.90
10089;DHT22;51898;49.864;8.550;2022-09-17T18:41:16;10.90;99.90
10089;DHT22;51898;49.864;8.550;2022-09-17T18:44:17;10.90;99.90
10089;DHT22;51898;49.864;8.550;2022-09-17T18:47:21;10.90;99.90
10089;DHT22;51898;49.864;8.550;2022-09-17T18:50:23;10.80;99.90
10089;DHT22;51898;49.864;8.550;2022-09-17T18:53:29;10.80;99.90
10089;DHT22;51898;49.864;8.550;2022-09-17T18:56:31;10.80;99.90
10089;DHT22;51898;49.864;8.550;2022-09-17T18:59:33;10.70;99.90
10089;DHT22;51898;49.864;8.550;2022-09-17T19:02:35;10.60;99.90
10089;DHT22;51898;49.864;8.550;2022-09-17T19:05:36;10.50;99.90
10089;DHT22;51898;49.864;8.550;2022-09-17T19:08:38;10.50;99.90
10089;DHT22;51898;49.864;8.550;2022-09-17T19:11:39;10.40;99.90
10089;DHT22;51898;49.864;8.550;2022-09-17T19:14:41;10.40;99.90
10089;DHT22;51898;49.864;8.550;2022-09-17T19:17:42;10.30;99.90
10089;DHT22;51898;49.864;8.550;2022-09-17T19:20:44;10.20;99.90
10089;DHT22;51898;49.864;8.550;2022-09-17T19:23:48;10.20;99.90
10089;DHT22;51898;49.864;8.550;2022-09-17T19:26:50;10.20;99.90
10089;DHT22;51898;49.864;8.550;2022-09-17T19:29:52;10.10;99.90
10089;DHT22;51898;49.864;8.550;2022-09-17T19:32:53;10.10;99.90
10089;DHT22;51898;49.864;8.550;2022-09-17T19:36:05;10.00;99.90
10089;DHT22;51898;49.864;8.550;2022-09-17T19:39:07;9.90;99.90
10089;DHT22;51898;49.864;8.550;2022-09-17T19:42:09;9.90;99.90
10089;DHT22;51898;49.864;8.550;2022-09-17T19:45:11;9.90;99.90
10089;DHT22;51898;49.864;8.550;2022-09-17T19:48:12;9.90;99.90
10089;DHT22;51898;49.864;8.550;2022-09-17T19:51:15;9.90;99.90
10089;DHT22;51898;49.864;8.550;2022-09-17T19:54:17;9.80;99.90
10089;DHT22;51898;49.864;8.550;2022-09-17T19:57:18;9.80;99.90
10089;DHT22;51898;49.864;8.550;2022-09-17T20:00:20;9.70;99.90
10089;DHT22;51898;49.864;8.550;2022-09-17T20:03:23;9.60;99.90
10089;DHT22;51898;49.864;8.550;2022-09-17T20:06:25;9.60;99.90
10089;DHT22;51898;49.864;8.550;2022-09-17T20:09:29;9.50;99.90
10089;DHT22;51898;49.864;8.550;2022-09-17T20:12:31;9.50;99.90
10089;DHT22;51898;49.864;8.550;2022-09-17T20:15:33;9.50;99.90
10089;DHT22;51898;49.864;8.550;2022-09-17T20:18:36;9.40;99.90
10089;DHT22;51898;49.864;8.550;2022-09-17T20:21:38;9.40;99.90
10089;DHT22;51898;49.864;8.550;2022-09-17T20:24:39;9.40;99.90
10089;DHT22;51898;49.864;8.550;2022-09-17T20:27:41;9.40;99.90
10089;DHT22;51898;49.864;8.550;2022-09-17T20:30:42;9.30;99.90
10089;DHT22;51898;49.864;8.550;2022-09-17T20:33:46;9.40;99.90
10089;DHT22;51898;49.864;8.550;2022-09-17T20:36:48;9.30;99.90
10089;DHT22;51898;49.864;8.550;2022-09-17T20:39:49;9.30;99.90
10089;DHT22;51898;49.864;8.550;2022-09-17T20:42:51;9.30;99.90
10089;DHT22;51898;49.864;8.550;2022-09-17T20:45:54;9.40;99.90
10089;DHT22;51898;49.864;8.550;2022-09-17T20:48:56;9.40;99.90
10089;DHT22;51898;49.864;8.550;2022-09-17T20:51:58;9.50;99.90
10089;DHT22;51898;49.864;8.550;2022-09-17T20:55:00;9.50;99.90
10089;DHT22;51898;49.864;8.550;2022-09-17T20:58:02;9.50;99.90
10089;DHT22;51898;49.864;8.550;2022-09-17T21:01:09;9.60;99.90
10089;DHT22;51898;49.864;8.550;2022-09-17T21:04:18;9.60;99.90
10089;DHT22;51898;49.864;8.550;2022-09-17T21:07:20;9.60;99.90
10089;DHT22;51898;49.864;8.550;2022-09-17T21:10:21;9.60;99.90
10089;DHT22;51898;49.864;8.550;2022-09-17T21:13:23;9.70;99.90
10089;DHT22;51898;49.864;8.550;2022-09-17T21:16:25;9.80;99.90
10089;DHT22;51898;49.864;8.550;2022-09-17T21:19:27;9.80;99.90
10089;DHT22;51898;49.864;8.550;2022-09-17T21:22:29;9.90;99.90
10089;DHT22;51898;49.864;8.550;2022-09-17T21:25:31;10.00;99.90
10089;DHT22;51898;49.864;8.550;2022-09-17T21:28:33;10.10;99.90
10089;DHT22;51898;49.864;8.550;2022-09-17T21:31:36;10.10;99.90
10089;DHT22;51898;49.864;8.550;2022-09-17T21:34:38;10.10;99.90
10089;DHT22;51898;49.864;8.550;2022-09-17T21:37:40;10.20;99.90
10089;DHT22;51898;49.864;8.550;2022-09-17T21:40:41;10.20;99.90
10089;DHT22;51898;49.864;8.550;2022-09-17T21:43:45;10.20;99.90
10089;DHT22;51898;49.864;8.550;2022-09-17T21:46:47;10.30;99.90
10089;DHT22;51898;49.864;8.550;2022-09-17T21:49:50;10.30;99.90
10089;DHT22;51898;49.864;8.550;2022-09-17T21:52:52;10.30;99.90
10089;DHT22;51898;49.864;8.550;2022-09-17T21:55:53;10.30;99.90
10089;DHT22;51898;49.864;8.550;2022-09-17T21:59:00;10.40;99.90
10089;DHT22;51898;49.864;8.550;2022-09-17T22:02:02;10.40;99.90
10089;DHT22;51898;49.864;8.550;2022-09-17T22:05:05;10.40;99.90
10089;DHT22;51898;49.864;8.550;2022-09-17T22:08:06;10.40;99.90
10089;DHT22;51898;49.864;8.550;2022-09-17T22:11:11;10.50;99.90
10089;DHT22;51898;49.864;8.550;2022-09-17T22:14:15;10.50;99.90
10089;DHT22;51898;49.864;8.550;2022-09-17T22:17:19;10.50;99.90
10089;DHT22;51898;49.864;8.550;2022-09-17T22:20:22;10.50;99.90
10089;DHT22;51898;49.864;8.550;2022-09-17T22:23:26;10.60;99.90
10089;DHT22;51898;49.864;8.550;2022-09-17T22:26:30;10.50;99.90
10089;DHT22;51898;49.864;8.550;2022-09-17T22:29:32;10.60;99.90
10089;DHT22;51898;49.864;8.550;2022-09-17T22:32:33;10.60;99.90
10089;DHT22;51898;49.864;8.550;2022-09-17T22:35:35;10.60;99.90
10089;DHT22;51898;49.864;8.550;2022-09-17T22:38:37;10.60;99.90
10089;DHT22;51898;49.864;8.550;2022-09-17T22:41:40;10.60;99.90
10089;DHT22;51898;49.864;8.550;2022-09-17T22:44:46;10.60;99.90
10089;DHT22;51898;49.864;8.550;2022-09-17T22:47:47;10.60;99.90
10089;DHT22;51898;49.864;8.550;2022-09-17T22:50:50;10.60;99.90
10089;DHT22;51898;49.864;8.550;2022-09-17T22:53:52;10.60;99.90
10089;DHT22;51898;49.864;8.550;2022-09-17T22:56:54;10.60;99.90
10089;DHT22;51898;49.864;8.550;2022-09-17T22:59:56;10.60;99.90
10089;DHT22;51898;49.864;8.550;2022-09-17T23:02:57;10.60;99.90
10089;DHT22;51898;49.864;8.550;2022-09-17T23:06:04;10.60;99.90
10089;DHT22;51898;49.864;8.550;2022-09-17T23:09:06;10.50;99.90
10089;DHT22;51898;49.864;8.550;2022-09-17T23:12:08;10.50;99.90
10089;DHT22;51898;49.864;8.550;2022-09-17T23:15:10;10.50;99.90
10089;DHT22;51898;49.864;8.550;2022-09-17T23:18:11;10.50;99.90
10089;DHT22;51898;49.864;8.550;2022-09-17T23:21:16;10.50;99.90
10089;DHT22;51898;49.864;8.550;2022-09-17T23:24:19;10.50;99.90
10089;DHT22;51898;49.864;8.550;2022-09-17T23:27:21;10.50;99.90